SDJO weather

São Joaquim da Barra Airport
São Joaquim Da Barra, São Paulo, Brazil

Public forecast

Using degrees Celsius for public forecast. Weather courtesy of forecast.io.

METAR (pilot weather report)

Closest report is Leite Lopes Airport, 32.8 nm (60.8 km) S. Retrieved 2019/04/20 00:00 UTC (5 minutes ago):

SBRP 200000Z 06002KT CAVOK 20/16 Q1015

TAF (pilot weather forecast)

Forecast is more than 12 hours old.

Closest forecast is Leite Lopes Airport, 32.8 nm (60.8 km) S. Retrieved 2019/04/19 00:09 UTC (24 hours ago):

TAF TAF SBRP 192200Z 2000/2024 10003KT CAVOK TN16/2009Z TX30/2018Z BECMG 2014/2016 25005KT BECMG 2022/2024 10005KT RMK PGE